createdAt,value
2019-04-03T00:01:50.784Z,99432.55
2019-04-03T00:04:22.286Z,99423.89
2019-04-03T00:06:53.829Z,99427.10
2019-04-03T00:09:26.066Z,99416.97
2019-04-03T00:11:57.764Z,99414.33
2019-04-03T00:14:28.450Z,99414.44
2019-04-03T00:17:00.392Z,99405.75
2019-04-03T00:19:32.344Z,99403.14
2019-04-03T00:22:04.110Z,99403.45
2019-04-03T00:24:35.885Z,99395.17
2019-04-03T00:27:07.416Z,99400.31
2019-04-03T00:29:39.440Z,99389.92
2019-04-03T00:32:11.071Z,99387.43
2019-04-03T00:34:42.794Z,99390.03
2019-04-03T00:37:13.474Z,99383.95
2019-04-03T00:39:45.377Z,99382.16
2019-04-03T00:42:20.161Z,99382.16
2019-04-03T00:44:54.047Z,99376.70
2019-04-03T00:47:26.379Z,99377.77
2019-04-03T00:49:58.076Z,99380.56
2019-04-03T00:52:29.751Z,99374.41
2019-04-03T00:55:00.508Z,99375.99
2019-04-03T00:57:32.326Z,99373.80
2019-04-03T01:00:03.834Z,99375.87
2019-04-03T01:02:36.870Z,99376.07
2019-04-03T01:05:09.479Z,99367.19
2019-04-03T01:07:41.318Z,99364.80
2019-04-03T01:10:12.820Z,99358.72
2019-04-03T01:12:44.812Z,99355.89
2019-04-03T01:15:16.858Z,99356.62
2019-04-03T01:17:48.398Z,99354.73
2019-04-03T01:20:20.399Z,99337.69
2019-04-03T01:22:52.354Z,99333.61
2019-04-03T01:25:24.067Z,99327.27
2019-04-03T01:27:55.750Z,99326.59
2019-04-03T01:30:26.485Z,99332.72
2019-04-03T01:32:58.305Z,99331.69
2019-04-03T01:35:30.598Z,99340.88
2019-04-03T01:38:02.309Z,99337.09
2019-04-03T01:40:34.033Z,99337.09
2019-04-03T01:43:05.865Z,99343.90
2019-04-03T01:45:37.728Z,99343.18
2019-04-03T01:48:08.464Z,99342.84
2019-04-03T01:50:40.072Z,99350.17
2019-04-03T01:53:11.761Z,99347.67
2019-04-03T01:55:42.587Z,99354.66
2019-04-03T01:58:14.719Z,99332.49
2019-04-03T02:00:45.667Z,99332.49
2019-04-03T02:03:16.495Z,99340.13
2019-04-03T02:05:48.321Z,99349.52
2019-04-03T02:08:20.188Z,99359.80
2019-04-03T02:10:52.371Z,99357.27
2019-04-03T02:13:24.079Z,99360.41
2019-04-03T02:15:55.745Z,99359.98
2019-04-03T02:18:27.630Z,99357.56
2019-04-03T02:20:59.372Z,99347.63
2019-04-03T02:23:31.310Z,99347.63
2019-04-03T02:26:03.073Z,99339.14
2019-04-03T02:28:35.252Z,99338.31
2019-04-03T02:31:07.040Z,99347.94
2019-04-03T02:33:38.792Z,99347.11
2019-04-03T02:36:12.485Z,99344.80
2019-04-03T02:38:43.340Z,99353.98
2019-04-03T02:41:15.652Z,99341.11
2019-04-03T02:43:47.402Z,99346.95
2019-04-03T02:46:18.596Z,99344.23
2019-04-03T02:48:50.341Z,99336.64
2019-04-03T02:51:22.062Z,99336.64
2019-04-03T02:53:53.799Z,99335.67
2019-04-03T02:56:24.465Z,99330.16
2019-04-03T02:58:56.073Z,99317.62
2019-04-03T03:01:27.741Z,99310.29
2019-04-03T03:03:58.738Z,99317.69
2019-04-03T03:06:31.417Z,99313.09
2019-04-03T03:09:03.278Z,99318.97
2019-04-03T03:11:35.115Z,99310.17
2019-04-03T03:14:07.681Z,99305.77
2019-04-03T03:16:39.822Z,99307.98
2019-04-03T03:19:11.792Z,99326.91
2019-04-03T03:21:44.691Z,99323.84
2019-04-03T03:24:16.881Z,99319.36
2019-04-03T03:26:49.130Z,99319.13
2019-04-03T03:29:25.669Z,99323.95
2019-04-03T03:32:07.939Z,99324.45
2019-04-03T03:34:49.533Z,99318.52
2019-04-03T03:37:03.481Z,99320.38
2019-04-03T03:39:36.023Z,99312.97
2019-04-03T03:42:09.004Z,99303.45
2019-04-03T03:44:45.614Z,99308.89
2019-04-03T03:47:16.454Z,99321.13
2019-04-03T03:49:50.685Z,99314.86
2019-04-03T03:52:23.398Z,99316.41
2019-04-03T03:54:55.930Z,99312.63
2019-04-03T03:57:27.754Z,99311.91
2019-04-03T03:59:58.454Z,99305.95
2019-04-03T04:02:30.426Z,99297.19
2019-04-03T04:05:02.704Z,99295.30
2019-04-03T04:07:37.446Z,99288.17
2019-04-03T04:10:08.710Z,99283.04
2019-04-03T04:12:41.825Z,99277.41
2019-04-03T04:15:14.492Z,99287.11
2019-04-03T04:17:48.533Z,99287.11
2019-04-03T04:20:19.851Z,99286.09
2019-04-03T04:22:51.823Z,99282.32
2019-04-03T04:25:24.489Z,99280.32
2019-04-03T04:27:56.398Z,99279.48
2019-04-03T04:30:28.065Z,99280.32
2019-04-03T04:35:36.767Z,99274.89
2019-04-03T04:38:07.519Z,99274.89
2019-04-03T04:40:39.410Z,99280.12
2019-04-03T04:43:11.072Z,99289.83
2019-04-03T04:45:43.275Z,99278.24
2019-04-03T04:48:16.764Z,99269.86
2019-04-03T04:50:47.601Z,99272.28
2019-04-03T04:53:19.347Z,99271.00
2019-04-03T04:55:51.310Z,99271.00
2019-04-03T04:58:22.858Z,99285.75
2019-04-03T05:00:54.754Z,99292.89
2019-04-03T05:03:26.312Z,99288.20
2019-04-03T05:05:58.623Z,99282.80
2019-04-03T05:08:32.529Z,99278.22
2019-04-03T05:11:05.559Z,99285.54
2019-04-03T05:13:37.907Z,99285.79
2019-04-03T05:16:09.695Z,99292.17
2019-04-03T05:18:41.850Z,99292.09
2019-04-03T05:21:13.752Z,99288.95
2019-04-03T05:23:44.925Z,99288.41
2019-04-03T05:26:16.830Z,99286.63
2019-04-03T05:28:54.613Z,99288.52
2019-04-03T05:31:21.786Z,99284.45
2019-04-03T05:33:52.499Z,99293.55
2019-04-03T05:36:24.268Z,99294.60
2019-04-03T05:38:56.226Z,99292.94
2019-04-03T05:41:28.699Z,99279.11
2019-04-03T05:44:02.434Z,99280.70
2019-04-03T05:46:36.533Z,99299.52
2019-04-03T05:49:10.713Z,99296.59
2019-04-03T05:51:40.478Z,99288.55
2019-04-03T05:54:14.211Z,99292.40
2019-04-03T05:56:45.762Z,99290.20
2019-04-03T05:59:17.722Z,99289.16
2019-04-03T06:01:48.519Z,99278.58
2019-04-03T06:04:20.310Z,99281.94
2019-04-03T06:06:51.867Z,99277.53
2019-04-03T06:09:23.411Z,99275.98
2019-04-03T06:11:55.297Z,99278.17
2019-04-03T06:14:27.055Z,99277.64
2019-04-03T06:17:00.371Z,99278.16
2019-04-03T06:19:32.534Z,99284.13
2019-04-03T06:22:05.611Z,99290.52
2019-04-03T06:24:37.358Z,99286.44
2019-04-03T06:27:10.346Z,99286.44
2019-04-03T06:29:42.500Z,99257.45
2019-04-03T06:32:14.221Z,99257.45
2019-04-03T06:34:45.776Z,99259.64
2019-04-03T06:37:16.508Z,99280.17
2019-04-03T06:39:48.437Z,99284.78
2019-04-03T06:42:20.200Z,99280.05
2019-04-03T06:44:53.601Z,99275.26
2019-04-03T06:47:25.110Z,99260.59
2019-04-03T06:49:56.725Z,99243.43
2019-04-03T06:52:27.608Z,99228.54
2019-04-03T06:54:59.650Z,99240.97
2019-04-03T06:57:31.331Z,99236.59
2019-04-03T07:00:03.278Z,99236.59
2019-04-03T07:02:35.299Z,99231.56
2019-04-03T07:05:09.581Z,99231.70
2019-04-03T07:07:40.754Z,99238.20
2019-04-03T07:10:24.106Z,99275.98
2019-04-03T07:12:46.470Z,99270.84
2019-04-03T07:15:19.944Z,99270.84
2019-04-03T07:17:51.717Z,99273.48
2019-04-03T07:20:22.457Z,99269.50
2019-04-03T07:22:54.309Z,99277.55
2019-04-03T07:25:25.856Z,99268.66
2019-04-03T07:27:57.825Z,99263.83
2019-04-03T07:30:29.544Z,99261.31
2019-04-03T07:33:01.299Z,99258.39
2019-04-03T07:35:32.801Z,99257.12
2019-04-03T07:38:04.749Z,99243.94
2019-04-03T07:40:37.022Z,99234.62
2019-04-03T07:43:10.536Z,99233.25
2019-04-03T07:45:43.848Z,99242.78
2019-04-03T07:48:15.750Z,99243.08
2019-04-03T07:50:46.936Z,99235.65
2019-04-03T07:53:21.885Z,99242.35
2019-04-03T07:55:55.356Z,99241.52
2019-04-03T07:58:30.612Z,99239.43
2019-04-03T08:01:01.791Z,99240.99
2019-04-03T08:03:33.624Z,99241.59
2019-04-03T08:06:04.573Z,99241.69
2019-04-03T08:08:37.098Z,99224.02
2019-04-03T08:11:08.753Z,99224.02
2019-04-03T08:13:39.475Z,99243.05
2019-04-03T08:16:11.432Z,99239.09
2019-04-03T08:18:43.415Z,99235.11
2019-04-03T08:21:15.368Z,99228.50
2019-04-03T08:23:47.700Z,99227.05
2019-04-03T08:26:19.765Z,99231.86
2019-04-03T08:28:51.766Z,99231.13
2019-04-03T08:31:22.602Z,99228.70
2019-04-03T08:33:53.466Z,99233.22
2019-04-03T08:36:26.519Z,99236.38
2019-04-03T08:38:59.325Z,99249.86
2019-04-03T08:41:31.114Z,99239.06
2019-04-03T08:44:03.634Z,99236.05
2019-04-03T08:46:36.857Z,99224.63
2019-04-03T08:49:08.592Z,99224.63
2019-04-03T08:51:40.433Z,99211.54
2019-04-03T08:54:12.564Z,99215.39
2019-04-03T08:56:44.812Z,99216.45
2019-04-03T08:59:17.195Z,99216.45
2019-04-03T09:01:49.361Z,99217.09
2019-04-03T09:04:21.306Z,99220.23
2019-04-03T09:06:54.113Z,99216.29
2019-04-03T09:09:27.007Z,99220.67
2019-04-03T09:12:00.239Z,99221.94
2019-04-03T09:14:33.018Z,99214.16
2019-04-03T09:17:05.533Z,99213.97
2019-04-03T09:19:41.081Z,99215.86
2019-04-03T09:22:12.451Z,99213.17
2019-04-03T09:24:45.498Z,99213.17
2019-04-03T09:27:17.890Z,99209.38
2019-04-03T09:29:51.711Z,99201.61
2019-04-03T09:32:24.655Z,99202.50
2019-04-03T09:35:00.545Z,99188.56
2019-04-03T09:37:32.963Z,99188.56
2019-04-03T09:40:06.327Z,99188.96
2019-04-03T09:42:39.332Z,99183.33
2019-04-03T09:45:12.692Z,99178.73
2019-04-03T09:47:46.770Z,99184.87
2019-04-03T09:50:22.586Z,99183.70
2019-04-03T09:52:55.428Z,99191.92
2019-04-03T09:55:31.363Z,99191.92
2019-04-03T09:58:03.288Z,99191.92
2019-04-03T10:00:45.293Z,99190.32
2019-04-03T10:03:18.444Z,99185.06
2019-04-03T10:05:51.082Z,99191.58
2019-04-03T10:08:23.334Z,99187.05
2019-04-03T10:10:55.820Z,99181.61
2019-04-03T10:13:28.108Z,99185.67
2019-04-03T10:16:03.397Z,99181.50
2019-04-03T10:18:35.554Z,99180.87
2019-04-03T10:21:07.991Z,99167.36
2019-04-03T10:23:40.720Z,99167.36
2019-04-03T10:26:13.433Z,99162.91
2019-04-03T10:28:47.801Z,99156.88
2019-04-03T10:31:23.495Z,99152.81
2019-04-03T10:33:55.478Z,99152.33
2019-04-03T10:36:28.590Z,99152.33
2019-04-03T10:39:00.214Z,99145.80
2019-04-03T10:41:33.120Z,99146.45
2019-04-03T10:44:08.183Z,99144.78
2019-04-03T10:46:40.294Z,99143.08
2019-04-03T10:49:13.125Z,99146.83
2019-04-03T10:54:30.504Z,99146.28
2019-04-03T10:57:03.502Z,99153.55
2019-04-03T10:59:35.314Z,99154.11
2019-04-03T11:02:07.822Z,99154.11
2019-04-03T11:04:39.641Z,99153.81
2019-04-03T11:07:13.355Z,99153.81
2019-04-03T11:09:45.593Z,99153.81
2019-04-03T11:12:17.027Z,99154.02
2019-04-03T11:14:49.412Z,99135.92
2019-04-03T11:17:21.311Z,99135.92
2019-04-03T11:19:52.989Z,99143.77
2019-04-03T11:22:24.728Z,99147.66
2019-04-03T11:24:55.460Z,99143.00
2019-04-03T11:27:40.795Z,99139.19
2019-04-03T11:30:00.773Z,99140.72
2019-04-03T11:32:32.927Z,99133.73
2019-04-03T11:35:04.857Z,99133.86
2019-04-03T11:37:36.746Z,99127.38
2019-04-03T11:40:09.998Z,99124.11
2019-04-03T11:42:42.305Z,99122.22
2019-04-03T11:45:14.078Z,99119.79
2019-04-03T11:47:46.391Z,99123.97
2019-04-03T11:50:18.761Z,99118.02
2019-04-03T11:52:51.387Z,99121.03
2019-04-03T11:55:23.423Z,99122.31
2019-04-03T11:57:55.272Z,99115.97
2019-04-03T12:00:32.410Z,99115.97
2019-04-03T12:03:04.064Z,99102.26
2019-04-03T12:05:36.313Z,99095.59
2019-04-03T12:08:08.050Z,99092.13
2019-04-03T12:10:39.787Z,99092.52
2019-04-03T12:13:13.587Z,99092.06
2019-04-03T12:15:44.872Z,99089.05
2019-04-03T12:18:16.783Z,99080.78
2019-04-03T12:20:49.952Z,99072.98
2019-04-03T12:23:26.746Z,99065.39
2019-04-03T12:25:58.263Z,99069.53
2019-04-03T12:28:29.848Z,99069.38
2019-04-03T12:31:01.615Z,99057.39
2019-04-03T12:33:33.757Z,99053.12
2019-04-03T12:36:06.533Z,99053.12
2019-04-03T12:38:38.078Z,99048.13
2019-04-03T12:41:12.323Z,99038.86
2019-04-03T12:43:44.280Z,99047.92
2019-04-03T12:46:16.212Z,99049.13
2019-04-03T12:48:50.882Z,99044.24
2019-04-03T12:51:21.799Z,99042.14
2019-04-03T12:53:54.022Z,99033.02
2019-04-03T12:56:26.122Z,99029.06
2019-04-03T12:58:59.641Z,99012.06
2019-04-03T13:01:30.854Z,99012.06
2019-04-03T13:04:02.729Z,99028.16
2019-04-03T13:06:33.605Z,99030.15
2019-04-03T13:09:07.123Z,99018.25
2019-04-03T13:11:39.756Z,99018.25
2019-04-03T13:14:23.408Z,99024.00
2019-04-03T13:16:47.035Z,99019.81
2019-04-03T13:19:18.988Z,99020.67
2019-04-03T13:21:50.837Z,99023.05
2019-04-03T13:24:22.408Z,99018.98
2019-04-03T13:26:57.142Z,99011.97
2019-04-03T13:29:27.800Z,99009.28
2019-04-03T13:31:59.676Z,99007.27
2019-04-03T13:34:32.159Z,99007.23
2019-04-03T13:37:04.302Z,99014.62
2019-04-03T13:39:36.091Z,99013.68
2019-04-03T13:42:08.376Z,99004.52
2019-04-03T13:44:40.720Z,99004.69
2019-04-03T13:47:12.831Z,98993.56
2019-04-03T13:49:44.743Z,98988.37
2019-04-03T13:52:16.066Z,98989.73
2019-04-03T13:54:47.897Z,98980.49
2019-04-03T13:57:19.800Z,98981.84
2019-04-03T13:59:51.568Z,98974.75
2019-04-03T14:02:23.963Z,98978.73
2019-04-03T14:04:57.319Z,98978.73
2019-04-03T14:07:31.099Z,98969.42
2019-04-03T14:10:03.302Z,98969.42
2019-04-03T14:12:38.070Z,98963.44
2019-04-03T14:15:09.662Z,98962.53
2019-04-03T14:17:53.440Z,98963.16
2019-04-03T14:20:15.422Z,98956.05
2019-04-03T14:22:47.260Z,98953.36
2019-04-03T14:25:22.509Z,98955.71
2019-04-03T14:27:52.551Z,98950.55
2019-04-03T14:30:24.620Z,98952.61
2019-04-03T14:32:55.601Z,98950.78
2019-04-03T14:35:47.419Z,98953.43
2019-04-03T14:38:00.756Z,98953.43
2019-04-03T14:40:32.429Z,98938.53
2019-04-03T14:43:04.327Z,98946.97
2019-04-03T14:45:38.653Z,98941.97
2019-04-03T14:48:09.756Z,98942.30
2019-04-03T14:50:46.659Z,98936.52
2019-04-03T14:53:23.273Z,98934.25
2019-04-03T14:55:56.358Z,98933.02
2019-04-03T14:58:28.359Z,98942.93
2019-04-03T15:01:00.638Z,98940.90
2019-04-03T15:03:34.295Z,98937.77
2019-04-03T15:06:06.353Z,98936.94
2019-04-03T15:08:38.780Z,98934.42
2019-04-03T15:11:15.747Z,98930.12
2019-04-03T15:13:47.415Z,98934.59
2019-04-03T15:16:20.306Z,98929.97
2019-04-03T15:18:52.457Z,98925.71
2019-04-03T15:21:24.840Z,98901.03
2019-04-03T15:23:57.028Z,98901.03
2019-04-03T15:26:29.369Z,98907.09
2019-04-03T15:29:02.213Z,98909.49
2019-04-03T15:31:34.037Z,98917.38
2019-04-03T15:34:05.777Z,98905.56
2019-04-03T15:36:37.261Z,98905.03
2019-04-03T15:39:16.394Z,98893.44
2019-04-03T15:41:48.496Z,98890.72
2019-04-03T15:44:21.452Z,98895.49
2019-04-03T15:46:59.248Z,98889.72
2019-04-03T15:49:31.954Z,98891.00
2019-04-03T15:52:04.187Z,98883.58
2019-04-03T15:54:36.435Z,98885.14
2019-04-03T15:57:09.070Z,98866.74
2019-04-03T15:59:41.297Z,98866.74
2019-04-03T16:02:13.392Z,98865.75
2019-04-03T16:04:45.353Z,98863.64
2019-04-03T16:07:17.306Z,98852.53
2019-04-03T16:09:51.142Z,98850.11
2019-04-03T16:12:22.482Z,98854.75
2019-04-03T16:14:55.253Z,98847.80
2019-04-03T16:17:27.347Z,98846.67
2019-04-03T16:19:59.804Z,98841.51
2019-04-03T16:22:32.281Z,98836.14
2019-04-03T16:25:04.420Z,98835.52
2019-04-03T16:27:36.375Z,98832.64
2019-04-03T16:30:09.705Z,98825.98
2019-04-03T16:32:42.655Z,98831.28
2019-04-03T16:35:15.369Z,98805.39
2019-04-03T16:37:49.617Z,98805.39
2019-04-03T16:40:20.814Z,98822.66
2019-04-03T16:42:53.598Z,98818.71
2019-04-03T16:45:25.744Z,98814.78
2019-04-03T16:47:56.541Z,98804.95
2019-04-03T16:50:28.811Z,98798.14
2019-04-03T16:53:05.647Z,98798.14
2019-04-03T16:55:47.655Z,98802.98
2019-04-03T16:58:20.933Z,98804.27
2019-04-03T17:00:53.669Z,98804.27
2019-04-03T17:03:27.727Z,98802.61
2019-04-03T17:05:59.833Z,98803.72
2019-04-03T17:08:31.728Z,98803.72
2019-04-03T17:11:02.479Z,98806.28
2019-04-03T17:13:34.771Z,98805.45
2019-04-03T17:16:07.821Z,98799.47
2019-04-03T17:18:39.731Z,98790.55
2019-04-03T17:21:10.491Z,98797.22
2019-04-03T17:23:44.810Z,98789.97
2019-04-03T17:26:15.784Z,98782.16
2019-04-03T17:28:47.766Z,98778.77
2019-04-03T17:31:20.008Z,98777.08
2019-04-03T17:33:52.237Z,98772.53
2019-04-03T17:36:24.399Z,98773.97
2019-04-03T17:38:56.448Z,98782.50
2019-04-03T17:41:30.513Z,98776.23
2019-04-03T17:44:02.305Z,98770.23
2019-04-03T17:46:34.256Z,98763.59
2019-04-03T17:49:06.540Z,98762.98
2019-04-03T17:51:38.261Z,98751.87
2019-04-03T17:54:13.982Z,98751.87
2019-04-03T17:56:46.299Z,98754.38
2019-04-03T17:59:18.894Z,98752.41
2019-04-03T18:01:52.475Z,98749.07
2019-04-03T18:04:27.858Z,98761.73
2019-04-03T18:06:59.757Z,98761.73
2019-04-03T18:09:36.204Z,98762.94
2019-04-03T18:12:07.605Z,98756.37
2019-04-03T18:14:39.365Z,98760.91
2019-04-03T18:17:11.547Z,98760.91
2019-04-03T18:19:46.340Z,98755.00
2019-04-03T18:22:20.051Z,98755.92
2019-04-03T18:24:53.578Z,98751.37
2019-04-03T18:27:25.724Z,98752.44
2019-04-03T18:29:57.145Z,98748.58
2019-04-03T18:32:29.936Z,98748.95
2019-04-03T18:35:02.308Z,98748.34
2019-04-03T18:37:34.475Z,98743.13
2019-04-03T18:40:07.301Z,98746.21
2019-04-03T18:42:39.016Z,98745.98
2019-04-03T18:45:24.082Z,98739.11
2019-04-03T18:49:09.306Z,98735.14
2019-04-03T18:51:40.987Z,98735.14
2019-04-03T18:54:13.293Z,98732.55
2019-04-03T18:56:45.926Z,98732.34
2019-04-03T18:59:18.259Z,98731.52
2019-04-03T19:01:49.878Z,98729.01
2019-04-03T19:04:21.730Z,98729.83
2019-04-03T19:06:52.599Z,98721.66
2019-04-03T19:09:25.477Z,98718.20
2019-04-03T19:12:07.897Z,98718.20
2019-04-03T19:14:32.019Z,98728.55
2019-04-03T19:17:04.842Z,98721.97
2019-04-03T19:19:36.799Z,98717.13
2019-04-03T19:22:18.646Z,98719.25
2019-04-03T19:24:52.155Z,98712.11
2019-04-03T19:27:23.785Z,98712.11
2019-04-03T19:29:55.807Z,98705.37
2019-04-03T19:32:27.501Z,98701.29
2019-04-03T19:34:59.315Z,98705.02
2019-04-03T19:37:33.466Z,98705.02
2019-04-03T19:40:04.317Z,98707.66
2019-04-03T19:42:37.010Z,98698.19
2019-04-03T19:45:08.817Z,98701.34
2019-04-03T19:47:40.754Z,98701.27
2019-04-03T19:50:11.745Z,98708.53
2019-04-03T19:52:43.388Z,98707.75
2019-04-03T19:55:15.320Z,98702.77
2019-04-03T19:57:47.268Z,98700.66
2019-04-03T20:00:19.707Z,98702.23
2019-04-03T20:02:53.357Z,98701.94
2019-04-03T20:05:25.070Z,98696.13
2019-04-03T20:07:58.556Z,98695.88
2019-04-03T20:10:31.827Z,98697.98
2019-04-03T20:13:03.850Z,98700.66
2019-04-03T20:15:36.979Z,98690.30
2019-04-03T20:18:09.305Z,98692.55
2019-04-03T20:20:40.986Z,98688.34
2019-04-03T20:23:13.884Z,98689.91
2019-04-03T20:25:45.921Z,98686.58
2019-04-03T20:28:18.514Z,98681.67
2019-04-03T20:30:49.501Z,98681.67
2019-04-03T20:33:21.483Z,98686.82
2019-04-03T20:35:53.306Z,98685.97
2019-04-03T20:38:27.169Z,98680.69
2019-04-03T20:43:26.782Z,98671.77
2019-04-03T20:46:00.003Z,98667.21
2019-04-03T20:48:32.947Z,98666.84
2019-04-03T20:51:05.016Z,98664.81
2019-04-03T20:53:37.389Z,98658.28
2019-04-03T20:56:10.326Z,98660.12
2019-04-03T20:58:54.967Z,98653.52
2019-04-03T21:01:16.101Z,98654.35
2019-04-03T21:03:50.039Z,98653.45
2019-04-03T21:06:22.438Z,98654.89
2019-04-03T21:08:55.308Z,98651.95
2019-04-03T21:11:28.003Z,98654.59
2019-04-03T21:14:01.121Z,98649.90
2019-04-03T21:16:33.974Z,98659.05
2019-04-03T21:19:06.476Z,98649.61
2019-04-03T21:21:38.882Z,98649.08
2019-04-03T21:24:11.314Z,98649.69
2019-04-03T21:26:44.377Z,98644.99
2019-04-03T21:29:17.423Z,98642.94
2019-04-03T21:31:49.854Z,98641.50
2019-04-03T21:34:21.894Z,98642.66
2019-04-03T21:36:54.338Z,98648.77
2019-04-03T21:39:26.933Z,98648.84
2019-04-03T21:41:59.038Z,98643.11
2019-04-03T21:44:31.902Z,98638.17
2019-04-03T21:47:04.881Z,98638.33
2019-04-03T21:49:36.950Z,98638.33
2019-04-03T21:52:09.494Z,98637.59
2019-04-03T21:54:42.332Z,98631.69
2019-04-03T21:57:14.813Z,98633.27
2019-04-03T21:59:47.489Z,98627.20
2019-04-03T22:02:20.112Z,98627.75
2019-04-03T22:04:53.962Z,98627.75
2019-04-03T22:07:28.601Z,98634.39
2019-04-03T22:10:02.024Z,98634.39
2019-04-03T22:12:36.686Z,98633.02
2019-04-03T22:15:09.909Z,98626.14
2019-04-03T22:17:43.802Z,98624.70
2019-04-03T22:20:16.352Z,98624.70
2019-04-03T22:22:48.877Z,98623.75
2019-04-03T22:25:21.309Z,98618.52
2019-04-03T22:27:53.896Z,98625.40
2019-04-03T22:30:27.451Z,98612.78
2019-04-03T22:33:00.359Z,98614.89
2019-04-03T22:35:32.863Z,98606.87
2019-04-03T22:38:06.033Z,98609.83
2019-04-03T22:40:39.083Z,98602.70
2019-04-03T22:43:15.305Z,98610.41
2019-04-03T22:45:47.078Z,98605.83
2019-04-03T22:48:19.529Z,98604.69
2019-04-03T22:50:51.845Z,98613.59
2019-04-03T22:53:23.914Z,98618.50
2019-04-03T22:55:56.019Z,98618.12
2019-04-03T22:58:28.461Z,98626.36
2019-04-03T23:01:00.855Z,98639.34
2019-04-03T23:03:33.871Z,98666.17
2019-04-03T23:06:06.873Z,98658.26
2019-04-03T23:08:38.923Z,98646.23
2019-04-03T23:11:10.928Z,98678.58
2019-04-03T23:13:43.873Z,98688.09
2019-04-03T23:16:16.139Z,98674.34
2019-04-03T23:18:48.850Z,98638.39
2019-04-03T23:21:23.473Z,98635.59
2019-04-03T23:23:57.819Z,98668.28
2019-04-03T23:26:32.149Z,98662.09
2019-04-03T23:29:05.266Z,98662.09
2019-04-03T23:31:38.023Z,98662.30
2019-04-03T23:34:10.873Z,98691.27
2019-04-03T23:36:42.913Z,98677.59
2019-04-03T23:39:14.890Z,98684.06
2019-04-03T23:41:47.907Z,98683.23
2019-04-03T23:44:21.101Z,98677.59
2019-04-03T23:46:54.109Z,98667.98
2019-04-03T23:49:26.480Z,98668.19
2019-04-03T23:51:59.602Z,98659.95
2019-04-03T23:54:33.694Z,98660.78
2019-04-03T23:57:03.714Z,98652.53
2019-04-03T23:59:36.353Z,98658.83
